sensor_id;sensor_type;location;lat;lon;timestamp;temperature;humidity
9446;DHT22;4761;49.490;10.908;2022-09-27T00:01:59;20.50;49.50
9446;DHT22;4761;49.490;10.908;2022-09-27T00:04:25;20.40;49.40
9446;DHT22;4761;49.490;10.908;2022-09-27T00:06:51;20.40;49.60
9446;DHT22;4761;49.490;10.908;2022-09-27T00:09:17;20.40;50.40
9446;DHT22;4761;49.490;10.908;2022-09-27T00:11:42;20.40;50.10
9446;DHT22;4761;49.490;10.908;2022-09-27T00:14:10;20.40;50.10
9446;DHT22;4761;49.490;10.908;2022-09-27T00:16:37;20.40;50.40
9446;DHT22;4761;49.490;10.908;2022-09-27T00:19:06;20.40;50.70
9446;DHT22;4761;49.490;10.908;2022-09-27T00:21:32;20.40;50.80
9446;DHT22;4761;49.490;10.908;2022-09-27T00:23:58;20.40;51.10
9446;DHT22;4761;49.490;10.908;2022-09-27T00:26:25;20.40;51.30
9446;DHT22;4761;49.490;10.908;2022-09-27T00:28:51;20.40;51.40
9446;DHT22;4761;49.490;10.908;2022-09-27T00:31:28;20.40;51.50
9446;DHT22;4761;49.490;10.908;2022-09-27T00:33:55;20.40;51.70
9446;DHT22;4761;49.490;10.908;2022-09-27T00:36:22;20.30;51.80
9446;DHT22;4761;49.490;10.908;2022-09-27T00:38:48;20.30;52.00
9446;DHT22;4761;49.490;10.908;2022-09-27T00:41:23;20.30;52.00
9446;DHT22;4761;49.490;10.908;2022-09-27T00:43:56;20.40;52.10
9446;DHT22;4761;49.490;10.908;2022-09-27T00:46:46;20.40;52.20
9446;DHT22;4761;49.490;10.908;2022-09-27T00:49:23;20.40;52.30
9446;DHT22;4761;49.490;10.908;2022-09-27T00:51:56;20.30;52.30
9446;DHT22;4761;49.490;10.908;2022-09-27T00:54:24;20.30;52.40
9446;DHT22;4761;49.490;10.908;2022-09-27T00:56:51;20.30;52.40
9446;DHT22;4761;49.490;10.908;2022-09-27T00:59:32;20.30;52.40
9446;DHT22;4761;49.490;10.908;2022-09-27T01:01:58;20.30;52.50
9446;DHT22;4761;49.490;10.908;2022-09-27T01:04:27;20.30;52.60
9446;DHT22;4761;49.490;10.908;2022-09-27T01:06:54;20.30;52.60
9446;DHT22;4761;49.490;10.908;2022-09-27T01:09:20;20.30;52.70
9446;DHT22;4761;49.490;10.908;2022-09-27T01:23:22;20.20;52.60
9446;DHT22;4761;49.490;10.908;2022-09-27T01:26:12;20.20;52.50
9446;DHT22;4761;49.490;10.908;2022-09-27T01:29:01;20.20;52.60
9446;DHT22;4761;49.490;10.908;2022-09-27T01:31:42;20.20;52.50
9446;DHT22;4761;49.490;10.908;2022-09-27T01:34:13;20.20;52.70
9446;DHT22;4761;49.490;10.908;2022-09-27T01:36:57;20.20;52.60
9446;DHT22;4761;49.490;10.908;2022-09-27T01:47:42;20.20;52.60
9446;DHT22;4761;49.490;10.908;2022-09-27T01:50:26;20.20;52.70
9446;DHT22;4761;49.490;10.908;2022-09-27T01:56:02;20.20;52.80
9446;DHT22;4761;49.490;10.908;2022-09-27T02:01:25;20.10;52.80
9446;DHT22;4761;49.490;10.908;2022-09-27T02:03:54;20.10;52.80
9446;DHT22;4761;49.490;10.908;2022-09-27T02:06:26;20.10;52.80
9446;DHT22;4761;49.490;10.908;2022-09-27T02:11:22;20.10;52.90
9446;DHT22;4761;49.490;10.908;2022-09-27T02:13:53;20.10;52.90
9446;DHT22;4761;49.490;10.908;2022-09-27T02:16:43;20.10;52.90
9446;DHT22;4761;49.490;10.908;2022-09-27T02:21:44;20.10;53.00
9446;DHT22;4761;49.490;10.908;2022-09-27T02:24:20;20.10;53.60
9446;DHT22;4761;49.490;10.908;2022-09-27T02:26:53;20.10;53.10
9446;DHT22;4761;49.490;10.908;2022-09-27T02:29:29;20.10;53.10
9446;DHT22;4761;49.490;10.908;2022-09-27T02:31:57;20.10;53.10
9446;DHT22;4761;49.490;10.908;2022-09-27T02:34:25;20.10;53.10
9446;DHT22;4761;49.490;10.908;2022-09-27T02:36:52;20.10;53.20
9446;DHT22;4761;49.490;10.908;2022-09-27T02:39:18;20.00;53.10
9446;DHT22;4761;49.490;10.908;2022-09-27T02:41:44;20.10;53.10
9446;DHT22;4761;49.490;10.908;2022-09-27T02:44:11;20.00;53.10
9446;DHT22;4761;49.490;10.908;2022-09-27T02:47:17;20.00;53.10
9446;DHT22;4761;49.490;10.908;2022-09-27T02:56:09;20.00;53.20
9446;DHT22;4761;49.490;10.908;2022-09-27T02:58:57;20.00;53.20
9446;DHT22;4761;49.490;10.908;2022-09-27T03:05:02;20.00;53.20
9446;DHT22;4761;49.490;10.908;2022-09-27T03:07:20;20.00;53.10
9446;DHT22;4761;49.490;10.908;2022-09-27T03:09:48;20.00;53.20
9446;DHT22;4761;49.490;10.908;2022-09-27T03:12:16;20.00;53.20
9446;DHT22;4761;49.490;10.908;2022-09-27T03:14:54;20.00;53.30
9446;DHT22;4761;49.490;10.908;2022-09-27T03:17:20;19.90;53.10
9446;DHT22;4761;49.490;10.908;2022-09-27T03:19:47;20.00;53.20
9446;DHT22;4761;49.490;10.908;2022-09-27T03:22:12;20.00;53.30
9446;DHT22;4761;49.490;10.908;2022-09-27T03:24:38;20.00;53.20
9446;DHT22;4761;49.490;10.908;2022-09-27T03:27:04;20.00;53.20
9446;DHT22;4761;49.490;10.908;2022-09-27T03:29:30;20.00;53.20
9446;DHT22;4761;49.490;10.908;2022-09-27T03:31:56;20.00;53.20
9446;DHT22;4761;49.490;10.908;2022-09-27T03:34:22;20.00;53.20
9446;DHT22;4761;49.490;10.908;2022-09-27T03:36:47;20.00;53.20
9446;DHT22;4761;49.490;10.908;2022-09-27T03:39:13;20.00;53.20
9446;DHT22;4761;49.490;10.908;2022-09-27T03:41:39;20.00;53.20
9446;DHT22;4761;49.490;10.908;2022-09-27T03:44:05;20.00;53.30
9446;DHT22;4761;49.490;10.908;2022-09-27T03:46:31;20.00;53.30
9446;DHT22;4761;49.490;10.908;2022-09-27T03:48:56;20.00;53.30
9446;DHT22;4761;49.490;10.908;2022-09-27T03:51:22;20.00;53.30
9446;DHT22;4761;49.490;10.908;2022-09-27T03:53:47;20.00;53.30
9446;DHT22;4761;49.490;10.908;2022-09-27T03:56:13;20.00;53.30
9446;DHT22;4761;49.490;10.908;2022-09-27T03:58:39;20.00;53.30
9446;DHT22;4761;49.490;10.908;2022-09-27T04:01:05;20.00;53.30
9446;DHT22;4761;49.490;10.908;2022-09-27T04:03:30;20.00;53.40
9446;DHT22;4761;49.490;10.908;2022-09-27T04:05:56;20.00;53.40
9446;DHT22;4761;49.490;10.908;2022-09-27T04:08:22;19.90;53.30
9446;DHT22;4761;49.490;10.908;2022-09-27T04:10:48;20.00;53.40
9446;DHT22;4761;49.490;10.908;2022-09-27T04:13:14;20.00;53.40
9446;DHT22;4761;49.490;10.908;2022-09-27T04:15:39;20.00;53.40
9446;DHT22;4761;49.490;10.908;2022-09-27T04:18:05;20.00;53.50
9446;DHT22;4761;49.490;10.908;2022-09-27T04:20:31;20.00;53.50
9446;DHT22;4761;49.490;10.908;2022-09-27T04:22:57;19.90;53.30
9446;DHT22;4761;49.490;10.908;2022-09-27T04:25:23;20.00;53.40
9446;DHT22;4761;49.490;10.908;2022-09-27T04:27:48;20.00;53.50
9446;DHT22;4761;49.490;10.908;2022-09-27T04:30:22;20.00;53.50
9446;DHT22;4761;49.490;10.908;2022-09-27T04:32:47;20.00;53.50
9446;DHT22;4761;49.490;10.908;2022-09-27T04:35:14;20.00;53.60
9446;DHT22;4761;49.490;10.908;2022-09-27T04:38:18;20.00;53.50
9446;DHT22;4761;49.490;10.908;2022-09-27T04:40:46;20.10;53.50
9446;DHT22;4761;49.490;10.908;2022-09-27T04:43:13;20.10;53.40
9446;DHT22;4761;49.490;10.908;2022-09-27T04:45:38;20.10;53.40
9446;DHT22;4761;49.490;10.908;2022-09-27T04:48:04;20.10;53.30
9446;DHT22;4761;49.490;10.908;2022-09-27T04:50:29;20.10;53.30
9446;DHT22;4761;49.490;10.908;2022-09-27T04:52:56;20.10;53.40
9446;DHT22;4761;49.490;10.908;2022-09-27T04:55:21;20.00;53.20
9446;DHT22;4761;49.490;10.908;2022-09-27T04:57:48;20.10;53.40
9446;DHT22;4761;49.490;10.908;2022-09-27T05:00:14;20.00;53.20
9446;DHT22;4761;49.490;10.908;2022-09-27T05:02:45;20.00;53.20
9446;DHT22;4761;49.490;10.908;2022-09-27T05:05:10;20.00;53.10
9446;DHT22;4761;49.490;10.908;2022-09-27T05:07:37;20.00;53.10
9446;DHT22;4761;49.490;10.908;2022-09-27T05:10:04;20.00;53.10
9446;DHT22;4761;49.490;10.908;2022-09-27T05:12:30;20.00;53.10
9446;DHT22;4761;49.490;10.908;2022-09-27T05:14:55;20.00;53.10
9446;DHT22;4761;49.490;10.908;2022-09-27T05:17:21;20.00;53.10
9446;DHT22;4761;49.490;10.908;2022-09-27T05:19:48;20.00;53.00
9446;DHT22;4761;49.490;10.908;2022-09-27T05:22:14;20.00;53.00
9446;DHT22;4761;49.490;10.908;2022-09-27T05:24:39;20.00;53.00
9446;DHT22;4761;49.490;10.908;2022-09-27T05:27:06;20.00;53.00
9446;DHT22;4761;49.490;10.908;2022-09-27T05:29:32;20.00;52.90
9446;DHT22;4761;49.490;10.908;2022-09-27T05:31:58;20.00;52.90
9446;DHT22;4761;49.490;10.908;2022-09-27T05:34:23;19.90;52.80
9446;DHT22;4761;49.490;10.908;2022-09-27T05:36:49;19.90;52.80
9446;DHT22;4761;49.490;10.908;2022-09-27T05:39:15;19.90;52.70
9446;DHT22;4761;49.490;10.908;2022-09-27T05:41:45;19.90;52.80
9446;DHT22;4761;49.490;10.908;2022-09-27T05:44:10;19.90;52.80
9446;DHT22;4761;49.490;10.908;2022-09-27T05:46:38;19.90;52.90
9446;DHT22;4761;49.490;10.908;2022-09-27T05:49:04;19.90;52.90
9446;DHT22;4761;49.490;10.908;2022-09-27T05:51:30;19.90;53.00
9446;DHT22;4761;49.490;10.908;2022-09-27T05:53:55;19.90;52.90
9446;DHT22;4761;49.490;10.908;2022-09-27T05:56:21;19.90;52.90
9446;DHT22;4761;49.490;10.908;2022-09-27T05:58:46;19.90;52.90
9446;DHT22;4761;49.490;10.908;2022-09-27T06:01:12;19.90;53.00
9446;DHT22;4761;49.490;10.908;2022-09-27T06:03:37;19.90;53.00
9446;DHT22;4761;49.490;10.908;2022-09-27T06:06:04;19.90;53.00
9446;DHT22;4761;49.490;10.908;2022-09-27T06:08:34;19.90;53.00
9446;DHT22;4761;49.490;10.908;2022-09-27T06:11:02;19.90;53.00
9446;DHT22;4761;49.490;10.908;2022-09-27T06:13:29;19.90;53.00
9446;DHT22;4761;49.490;10.908;2022-09-27T06:15:54;19.90;53.00
9446;DHT22;4761;49.490;10.908;2022-09-27T06:18:20;20.00;53.10
9446;DHT22;4761;49.490;10.908;2022-09-27T06:20:46;19.90;53.00
9446;DHT22;4761;49.490;10.908;2022-09-27T06:23:16;19.90;53.10
9446;DHT22;4761;49.490;10.908;2022-09-27T06:25:43;19.90;53.20
9446;DHT22;4761;49.490;10.908;2022-09-27T06:28:09;19.90;53.20
9446;DHT22;4761;49.490;10.908;2022-09-27T06:30:43;20.00;53.00
9446;DHT22;4761;49.490;10.908;2022-09-27T06:33:14;20.00;53.00
9446;DHT22;4761;49.490;10.908;2022-09-27T06:35:41;20.00;53.10
9446;DHT22;4761;49.490;10.908;2022-09-27T06:38:10;20.00;53.10
9446;DHT22;4761;49.490;10.908;2022-09-27T06:40:36;20.00;53.20
9446;DHT22;4761;49.490;10.908;2022-09-27T06:43:07;20.00;53.30
9446;DHT22;4761;49.490;10.908;2022-09-27T06:45:34;19.90;53.30
9446;DHT22;4761;49.490;10.908;2022-09-27T06:48:07;20.00;53.40
9446;DHT22;4761;49.490;10.908;2022-09-27T06:50:35;20.00;53.30
9446;DHT22;4761;49.490;10.908;2022-09-27T06:53:02;20.00;53.30
9446;DHT22;4761;49.490;10.908;2022-09-27T06:55:28;20.00;53.40
9446;DHT22;4761;49.490;10.908;2022-09-27T06:57:58;20.00;53.50
9446;DHT22;4761;49.490;10.908;2022-09-27T07:00:42;19.90;53.50
9446;DHT22;4761;49.490;10.908;2022-09-27T07:03:09;19.90;53.70
9446;DHT22;4761;49.490;10.908;2022-09-27T07:05:36;19.90;53.80
9446;DHT22;4761;49.490;10.908;2022-09-27T07:08:03;19.90;53.80
9446;DHT22;4761;49.490;10.908;2022-09-27T07:10:32;19.90;53.80
9446;DHT22;4761;49.490;10.908;2022-09-27T07:13:09;19.90;53.80
9446;DHT22;4761;49.490;10.908;2022-09-27T07:15:36;19.90;53.80
9446;DHT22;4761;49.490;10.908;2022-09-27T07:18:03;19.90;53.90
9446;DHT22;4761;49.490;10.908;2022-09-27T07:20:30;19.90;54.00
9446;DHT22;4761;49.490;10.908;2022-09-27T07:22:57;19.90;54.10
9446;DHT22;4761;49.490;10.908;2022-09-27T07:25:23;19.90;54.00
9446;DHT22;4761;49.490;10.908;2022-09-27T07:27:49;19.90;54.00
9446;DHT22;4761;49.490;10.908;2022-09-27T07:30:17;19.90;53.90
9446;DHT22;4761;49.490;10.908;2022-09-27T07:32:43;19.90;54.00
9446;DHT22;4761;49.490;10.908;2022-09-27T07:35:10;19.90;54.00
9446;DHT22;4761;49.490;10.908;2022-09-27T07:37:37;19.90;54.10
9446;DHT22;4761;49.490;10.908;2022-09-27T07:40:05;19.90;54.20
9446;DHT22;4761;49.490;10.908;2022-09-27T07:42:35;19.90;54.20
9446;DHT22;4761;49.490;10.908;2022-09-27T07:45:04;19.90;54.20
9446;DHT22;4761;49.490;10.908;2022-09-27T07:47:31;19.90;54.20
9446;DHT22;4761;49.490;10.908;2022-09-27T07:49:56;19.90;54.30
9446;DHT22;4761;49.490;10.908;2022-09-27T07:52:22;19.90;54.40
9446;DHT22;4761;49.490;10.908;2022-09-27T07:54:47;19.90;54.40
9446;DHT22;4761;49.490;10.908;2022-09-27T07:57:14;19.90;54.50
9446;DHT22;4761;49.490;10.908;2022-09-27T07:59:40;19.90;54.50
9446;DHT22;4761;49.490;10.908;2022-09-27T08:02:15;19.90;54.60
9446;DHT22;4761;49.490;10.908;2022-09-27T08:04:41;19.90;54.70
9446;DHT22;4761;49.490;10.908;2022-09-27T08:07:11;19.90;54.70
9446;DHT22;4761;49.490;10.908;2022-09-27T08:09:37;19.90;54.70
9446;DHT22;4761;49.490;10.908;2022-09-27T08:12:02;19.90;54.70
9446;DHT22;4761;49.490;10.908;2022-09-27T08:14:29;19.90;54.70
9446;DHT22;4761;49.490;10.908;2022-09-27T08:16:55;19.90;54.80
9446;DHT22;4761;49.490;10.908;2022-09-27T08:19:21;19.90;54.90
9446;DHT22;4761;49.490;10.908;2022-09-27T08:21:46;19.90;55.60
9446;DHT22;4761;49.490;10.908;2022-09-27T08:24:13;19.90;55.00
9446;DHT22;4761;49.490;10.908;2022-09-27T08:26:38;19.90;55.10
9446;DHT22;4761;49.490;10.908;2022-09-27T08:29:04;19.90;55.20
9446;DHT22;4761;49.490;10.908;2022-09-27T08:31:30;20.00;55.20
9446;DHT22;4761;49.490;10.908;2022-09-27T08:33:55;20.00;55.20
9446;DHT22;4761;49.490;10.908;2022-09-27T08:36:22;20.00;55.30
9446;DHT22;4761;49.490;10.908;2022-09-27T08:38:51;19.90;55.20
9446;DHT22;4761;49.490;10.908;2022-09-27T08:49:26;20.00;55.80
9446;DHT22;4761;49.490;10.908;2022-09-27T08:51:54;19.90;55.20
9446;DHT22;4761;49.490;10.908;2022-09-27T08:54:27;20.00;55.30
9446;DHT22;4761;49.490;10.908;2022-09-27T08:56:58;20.00;55.20
9446;DHT22;4761;49.490;10.908;2022-09-27T08:59:32;20.00;55.10
9446;DHT22;4761;49.490;10.908;2022-09-27T09:01:59;20.00;55.10
9446;DHT22;4761;49.490;10.908;2022-09-27T09:04:34;20.00;55.10
9446;DHT22;4761;49.490;10.908;2022-09-27T09:07:11;20.00;55.00
9446;DHT22;4761;49.490;10.908;2022-09-27T09:09:50;20.00;55.10
9446;DHT22;4761;49.490;10.908;2022-09-27T09:15:38;20.00;55.10
9446;DHT22;4761;49.490;10.908;2022-09-27T09:34:53;20.00;54.90
9446;DHT22;4761;49.490;10.908;2022-09-27T09:39:59;19.90;54.80
9446;DHT22;4761;49.490;10.908;2022-09-27T09:42:39;19.90;54.70
9446;DHT22;4761;49.490;10.908;2022-09-27T09:50:52;20.00;54.60
9446;DHT22;4761;49.490;10.908;2022-09-27T09:53:39;20.00;54.70
9446;DHT22;4761;49.490;10.908;2022-09-27T09:56:22;19.90;54.80
9446;DHT22;4761;49.490;10.908;2022-09-27T09:59:03;20.00;55.10
9446;DHT22;4761;49.490;10.908;2022-09-27T10:01:44;20.00;55.20
9446;DHT22;4761;49.490;10.908;2022-09-27T10:04:19;20.00;55.40
9446;DHT22;4761;49.490;10.908;2022-09-27T10:06:47;20.00;55.40
9446;DHT22;4761;49.490;10.908;2022-09-27T10:09:14;20.00;55.50
9446;DHT22;4761;49.490;10.908;2022-09-27T10:11:44;20.00;55.40
9446;DHT22;4761;49.490;10.908;2022-09-27T10:14:12;20.00;55.40
9446;DHT22;4761;49.490;10.908;2022-09-27T10:16:40;20.00;55.40
9446;DHT22;4761;49.490;10.908;2022-09-27T10:19:12;20.00;55.20
9446;DHT22;4761;49.490;10.908;2022-09-27T10:21:42;20.00;55.10
9446;DHT22;4761;49.490;10.908;2022-09-27T10:26:36;20.10;55.20
9446;DHT22;4761;49.490;10.908;2022-09-27T10:29:29;20.10;55.20
9446;DHT22;4761;49.490;10.908;2022-09-27T10:31:55;20.10;55.20
9446;DHT22;4761;49.490;10.908;2022-09-27T10:34:34;20.10;55.80
9446;DHT22;4761;49.490;10.908;2022-09-27T10:37:15;20.10;55.20
9446;DHT22;4761;49.490;10.908;2022-09-27T10:39:45;20.20;55.20
9446;DHT22;4761;49.490;10.908;2022-09-27T10:44:46;20.10;55.10
9446;DHT22;4761;49.490;10.908;2022-09-27T10:47:16;20.10;55.10
9446;DHT22;4761;49.490;10.908;2022-09-27T10:49:47;20.10;55.10
9446;DHT22;4761;49.490;10.908;2022-09-27T10:52:15;20.00;54.80
9446;DHT22;4761;49.490;10.908;2022-09-27T10:54:52;20.00;54.80
9446;DHT22;4761;49.490;10.908;2022-09-27T10:57:23;20.00;54.80
9446;DHT22;4761;49.490;10.908;2022-09-27T10:59:56;20.00;54.90
9446;DHT22;4761;49.490;10.908;2022-09-27T11:02:28;20.00;54.90
9446;DHT22;4761;49.490;10.908;2022-09-27T11:07:27;20.00;54.90
9446;DHT22;4761;49.490;10.908;2022-09-27T11:09:56;20.00;54.90
9446;DHT22;4761;49.490;10.908;2022-09-27T11:12:27;20.00;54.80
9446;DHT22;4761;49.490;10.908;2022-09-27T11:15:00;20.00;54.70
9446;DHT22;4761;49.490;10.908;2022-09-27T11:17:42;20.00;54.70
9446;DHT22;4761;49.490;10.908;2022-09-27T11:20:28;20.00;54.80
9446;DHT22;4761;49.490;10.908;2022-09-27T11:31:39;20.10;54.60
9446;DHT22;4761;49.490;10.908;2022-09-27T11:50:43;20.00;54.60
9446;DHT22;4761;49.490;10.908;2022-09-27T12:04:06;20.00;54.80
9446;DHT22;4761;49.490;10.908;2022-09-27T12:07:01;19.90;54.70
9446;DHT22;4761;49.490;10.908;2022-09-27T12:09:34;19.90;54.60
9446;DHT22;4761;49.490;10.908;2022-09-27T12:12:12;19.90;54.70
9446;DHT22;4761;49.490;10.908;2022-09-27T12:14:52;19.90;54.70
9446;DHT22;4761;49.490;10.908;2022-09-27T12:17:23;20.00;54.80
9446;DHT22;4761;49.490;10.908;2022-09-27T12:19:55;19.90;55.10
9446;DHT22;4761;49.490;10.908;2022-09-27T12:22:29;19.90;55.00
9446;DHT22;4761;49.490;10.908;2022-09-27T12:24:58;20.00;55.10
9446;DHT22;4761;49.490;10.908;2022-09-27T12:27:42;20.00;55.20
9446;DHT22;4761;49.490;10.908;2022-09-27T12:30:11;20.10;55.30
9446;DHT22;4761;49.490;10.908;2022-09-27T12:32:55;20.10;55.20
9446;DHT22;4761;49.490;10.908;2022-09-27T12:35:28;20.10;55.30
9446;DHT22;4761;49.490;10.908;2022-09-27T12:38:22;20.20;55.50
9446;DHT22;4761;49.490;10.908;2022-09-27T12:40:52;20.20;55.40
9446;DHT22;4761;49.490;10.908;2022-09-27T12:43:20;20.20;55.40
9446;DHT22;4761;49.490;10.908;2022-09-27T12:51:09;20.20;55.00
9446;DHT22;4761;49.490;10.908;2022-09-27T13:08:26;20.10;55.10
9446;DHT22;4761;49.490;10.908;2022-09-27T13:13:37;20.10;55.30
9446;DHT22;4761;49.490;10.908;2022-09-27T13:16:05;20.10;55.40
9446;DHT22;4761;49.490;10.908;2022-09-27T13:21:06;20.10;55.30
9446;DHT22;4761;49.490;10.908;2022-09-27T13:28:56;20.10;54.80
9446;DHT22;4761;49.490;10.908;2022-09-27T13:34:38;20.10;54.30
9446;DHT22;4761;49.490;10.908;2022-09-27T13:40:15;20.10;54.20
9446;DHT22;4761;49.490;10.908;2022-09-27T13:45:35;20.00;53.70
9446;DHT22;4761;49.490;10.908;2022-09-27T13:48:15;20.00;53.40
9446;DHT22;4761;49.490;10.908;2022-09-27T13:50:47;20.10;53.40
9446;DHT22;4761;49.490;10.908;2022-09-27T13:53:33;20.00;53.10
9446;DHT22;4761;49.490;10.908;2022-09-27T13:55:59;20.10;53.10
9446;DHT22;4761;49.490;10.908;2022-09-27T13:58:39;20.00;52.90
9446;DHT22;4761;49.490;10.908;2022-09-27T14:01:27;20.00;52.80
9446;DHT22;4761;49.490;10.908;2022-09-27T14:04:00;20.00;52.80
9446;DHT22;4761;49.490;10.908;2022-09-27T14:06:34;20.00;52.70
9446;DHT22;4761;49.490;10.908;2022-09-27T14:09:12;20.00;52.50
9446;DHT22;4761;49.490;10.908;2022-09-27T14:11:42;20.00;52.50
9446;DHT22;4761;49.490;10.908;2022-09-27T14:14:17;20.00;52.40
9446;DHT22;4761;49.490;10.908;2022-09-27T14:16:44;20.10;52.40
9446;DHT22;4761;49.490;10.908;2022-09-27T14:19:14;20.00;52.20
9446;DHT22;4761;49.490;10.908;2022-09-27T14:21:45;20.00;52.10
9446;DHT22;4761;49.490;10.908;2022-09-27T14:29:48;20.00;52.10
9446;DHT22;4761;49.490;10.908;2022-09-27T14:32:18;20.00;52.20
9446;DHT22;4761;49.490;10.908;2022-09-27T14:34:45;20.00;52.20
9446;DHT22;4761;49.490;10.908;2022-09-27T14:37:27;20.00;52.20
9446;DHT22;4761;49.490;10.908;2022-09-27T14:39:58;20.00;52.20
9446;DHT22;4761;49.490;10.908;2022-09-27T14:42:26;20.10;52.30
9446;DHT22;4761;49.490;10.908;2022-09-27T14:44:57;20.00;52.10
9446;DHT22;4761;49.490;10.908;2022-09-27T14:47:26;20.10;51.90
9446;DHT22;4761;49.490;10.908;2022-09-27T14:50:01;20.10;52.40
9446;DHT22;4761;49.490;10.908;2022-09-27T14:52:31;20.10;51.60
9446;DHT22;4761;49.490;10.908;2022-09-27T14:55:07;20.10;51.40
9446;DHT22;4761;49.490;10.908;2022-09-27T14:57:33;20.00;51.40
9446;DHT22;4761;49.490;10.908;2022-09-27T15:02:45;20.00;51.10
9446;DHT22;4761;49.490;10.908;2022-09-27T15:05:17;20.00;50.90
9446;DHT22;4761;49.490;10.908;2022-09-27T15:07:44;20.00;50.80
9446;DHT22;4761;49.490;10.908;2022-09-27T15:10:21;20.10;50.60
9446;DHT22;4761;49.490;10.908;2022-09-27T15:12:49;20.00;50.30
9446;DHT22;4761;49.490;10.908;2022-09-27T15:15:21;20.00;50.20
9446;DHT22;4761;49.490;10.908;2022-09-27T15:17:48;20.10;50.20
9446;DHT22;4761;49.490;10.908;2022-09-27T15:20:25;20.10;50.00
9446;DHT22;4761;49.490;10.908;2022-09-27T15:22:53;20.10;49.90
9446;DHT22;4761;49.490;10.908;2022-09-27T15:25:35;20.10;49.90
9446;DHT22;4761;49.490;10.908;2022-09-27T15:30:48;20.10;49.70
9446;DHT22;4761;49.490;10.908;2022-09-27T15:33:20;20.20;49.70
9446;DHT22;4761;49.490;10.908;2022-09-27T15:35:49;20.20;49.60
9446;DHT22;4761;49.490;10.908;2022-09-27T15:38:44;20.20;49.40
9446;DHT22;4761;49.490;10.908;2022-09-27T15:41:16;20.20;49.30
9446;DHT22;4761;49.490;10.908;2022-09-27T15:43:49;20.10;49.10
9446;DHT22;4761;49.490;10.908;2022-09-27T15:51:45;20.10;49.10
9446;DHT22;4761;49.490;10.908;2022-09-27T15:54:11;20.10;49.00
9446;DHT22;4761;49.490;10.908;2022-09-27T15:56:38;20.10;49.10
9446;DHT22;4761;49.490;10.908;2022-09-27T15:59:04;20.10;49.00
9446;DHT22;4761;49.490;10.908;2022-09-27T16:01:30;20.10;49.10
9446;DHT22;4761;49.490;10.908;2022-09-27T16:03:58;20.10;48.90
9446;DHT22;4761;49.490;10.908;2022-09-27T16:06:26;20.10;48.90
9446;DHT22;4761;49.490;10.908;2022-09-27T16:08:52;20.10;48.80
9446;DHT22;4761;49.490;10.908;2022-09-27T16:11:18;20.10;48.90
9446;DHT22;4761;49.490;10.908;2022-09-27T16:13:44;20.10;48.80
9446;DHT22;4761;49.490;10.908;2022-09-27T16:16:15;20.00;48.80
9446;DHT22;4761;49.490;10.908;2022-09-27T16:18:42;20.00;48.60
9446;DHT22;4761;49.490;10.908;2022-09-27T16:21:08;20.10;48.50
9446;DHT22;4761;49.490;10.908;2022-09-27T16:23:34;20.10;48.50
9446;DHT22;4761;49.490;10.908;2022-09-27T16:25:59;20.10;48.50
9446;DHT22;4761;49.490;10.908;2022-09-27T16:28:25;20.10;48.40
9446;DHT22;4761;49.490;10.908;2022-09-27T16:30:50;20.00;48.30
9446;DHT22;4761;49.490;10.908;2022-09-27T16:33:16;20.00;48.20
9446;DHT22;4761;49.490;10.908;2022-09-27T16:35:42;20.00;48.20
9446;DHT22;4761;49.490;10.908;2022-09-27T16:38:08;20.00;48.20
9446;DHT22;4761;49.490;10.908;2022-09-27T16:40:34;20.00;48.20
9446;DHT22;4761;49.490;10.908;2022-09-27T16:43:00;20.00;48.80
9446;DHT22;4761;49.490;10.908;2022-09-27T16:45:29;20.00;48.20
9446;DHT22;4761;49.490;10.908;2022-09-27T16:47:58;20.00;48.20
9446;DHT22;4761;49.490;10.908;2022-09-27T16:50:23;20.00;48.10
9446;DHT22;4761;49.490;10.908;2022-09-27T16:53:12;19.90;48.00
9446;DHT22;4761;49.490;10.908;2022-09-27T16:55:38;20.00;48.10
9446;DHT22;4761;49.490;10.908;2022-09-27T16:58:04;20.00;48.20
9446;DHT22;4761;49.490;10.908;2022-09-27T17:00:31;20.00;48.20
9446;DHT22;4761;49.490;10.908;2022-09-27T17:02:58;19.90;48.10
9446;DHT22;4761;49.490;10.908;2022-09-27T17:05:24;19.90;48.10
9446;DHT22;4761;49.490;10.908;2022-09-27T17:07:52;19.90;48.20
9446;DHT22;4761;49.490;10.908;2022-09-27T17:10:18;19.90;48.30
9446;DHT22;4761;49.490;10.908;2022-09-27T17:12:45;19.90;48.20
9446;DHT22;4761;49.490;10.908;2022-09-27T17:15:11;19.90;48.10
9446;DHT22;4761;49.490;10.908;2022-09-27T17:17:37;19.90;48.20
9446;DHT22;4761;49.490;10.908;2022-09-27T17:20:02;19.90;48.20
9446;DHT22;4761;49.490;10.908;2022-09-27T17:22:29;19.90;48.20
9446;DHT22;4761;49.490;10.908;2022-09-27T17:24:55;19.90;48.10
9446;DHT22;4761;49.490;10.908;2022-09-27T17:27:21;19.90;48.10
9446;DHT22;4761;49.490;10.908;2022-09-27T17:29:47;19.90;48.20
9446;DHT22;4761;49.490;10.908;2022-09-27T17:32:13;19.90;48.10
9446;DHT22;4761;49.490;10.908;2022-09-27T17:34:39;19.90;48.00
9446;DHT22;4761;49.490;10.908;2022-09-27T17:37:08;19.80;48.00
9446;DHT22;4761;49.490;10.908;2022-09-27T17:39:35;19.90;48.10
9446;DHT22;4761;49.490;10.908;2022-09-27T17:42:01;19.90;48.00
9446;DHT22;4761;49.490;10.908;2022-09-27T17:44:27;19.90;47.80
9446;DHT22;4761;49.490;10.908;2022-09-27T17:46:52;19.90;47.80
9446;DHT22;4761;49.490;10.908;2022-09-27T17:49:38;19.90;47.80
9446;DHT22;4761;49.490;10.908;2022-09-27T17:52:22;19.90;47.80
9446;DHT22;4761;49.490;10.908;2022-09-27T17:54:51;19.90;47.80
9446;DHT22;4761;49.490;10.908;2022-09-27T17:57:20;19.90;47.80
9446;DHT22;4761;49.490;10.908;2022-09-27T17:59:45;19.90;47.80
9446;DHT22;4761;49.490;10.908;2022-09-27T18:02:11;19.80;47.80
9446;DHT22;4761;49.490;10.908;2022-09-27T18:04:36;19.90;48.10
9446;DHT22;4761;49.490;10.908;2022-09-27T18:07:02;19.80;48.20
9446;DHT22;4761;49.490;10.908;2022-09-27T18:09:27;19.90;48.50
9446;DHT22;4761;49.490;10.908;2022-09-27T18:11:53;19.90;49.30
9446;DHT22;4761;49.490;10.908;2022-09-27T18:14:18;19.90;48.90
9446;DHT22;4761;49.490;10.908;2022-09-27T18:16:45;19.80;49.10
9446;DHT22;4761;49.490;10.908;2022-09-27T18:19:15;19.80;49.40
9446;DHT22;4761;49.490;10.908;2022-09-27T18:21:41;19.80;49.60
9446;DHT22;4761;49.490;10.908;2022-09-27T18:24:07;19.80;49.80
9446;DHT22;4761;49.490;10.908;2022-09-27T18:26:35;19.80;50.10
9446;DHT22;4761;49.490;10.908;2022-09-27T18:29:08;19.80;50.20
9446;DHT22;4761;49.490;10.908;2022-09-27T18:31:34;19.80;50.30
9446;DHT22;4761;49.490;10.908;2022-09-27T18:34:00;19.80;50.40
9446;DHT22;4761;49.490;10.908;2022-09-27T18:36:27;19.80;50.40
9446;DHT22;4761;49.490;10.908;2022-09-27T18:38:59;19.80;50.30
9446;DHT22;4761;49.490;10.908;2022-09-27T18:41:28;19.70;50.20
9446;DHT22;4761;49.490;10.908;2022-09-27T18:43:56;19.70;50.20
9446;DHT22;4761;49.490;10.908;2022-09-27T18:46:24;19.70;50.20
9446;DHT22;4761;49.490;10.908;2022-09-27T18:48:50;19.70;50.20
9446;DHT22;4761;49.490;10.908;2022-09-27T18:51:18;19.70;50.20
9446;DHT22;4761;49.490;10.908;2022-09-27T18:53:45;19.70;50.20
9446;DHT22;4761;49.490;10.908;2022-09-27T18:56:15;19.70;50.20
9446;DHT22;4761;49.490;10.908;2022-09-27T18:58:43;19.70;50.30